CheckWX is a tool to help pilots better visualize weather data.  It is not intended as a substitute for an official pre-flight weather briefing.

13:59:35 UTC

EBDT TAF
Schaffen Airport
Diest, Belgium
TAF EBDT 201141Z 2013/2022 25006KT 9999 FEW035 BECMG 2018/2020 28003KT FEW045

Aug-20@
13:00 UTC

Aug-20 @ 13:00 UTC

Aug-20@
18:00 UTC

Aug-20 @ 18:00 UTC

TAF EBDT 201141Z 2013/2022 25006KT 9999 FEW035
Wind
  • 250° at 6 KTS
Cloud Levels
  • Few at 3,500' AGL

Aug-20@
18:00 UTC

Aug-20 @ 18:00 UTC

Aug-20@
22:00 UTC

Aug-20 @ 22:00 UTC

BECMG 2018/2020 28003KT FEW045

Becoming

Becoming Conditions expected by Tue, Aug 20, 2019 @ 20:00 UTC

Wind
  • 280° at 3 KTS
Cloud Levels
  • Few at 4,500' AGL